Time;durP1;ratioP1;P1;durP2;ratioP2;P2;SDS_P1;SDS_P2;PMS_P1;PMS_P2;Temp;Humidity;BMP_temperature;BMP_pressure;BME280_temperature;BME280_humidity;BME280_pressure;Samples;Min_cycle;Max_cycle;Signal;HPM_P1;HPM_P2
2021/06/07 00:01:43;;;;;;;31.08;21.10;;;17.90;99.90;;;;;;5051203;28;20029;-51
2021/06/07 00:04:09;;;;;;;30.25;22.52;;;17.90;99.90;;;;;;5050840;28;20180;-51
2021/06/07 00:06:36;;;;;;;29.15;20.95;;;17.90;99.90;;;;;;5050665;28;20393;-48
2021/06/07 00:09:05;;;;;;;29.70;22.17;;;17.90;99.90;;;;;;5050182;28;20056;-47
2021/06/07 00:11:31;;;;;;;35.75;22.73;;;17.90;99.90;;;;;;5050402;28;20027;-47
2021/06/07 00:13:56;;;;;;;29.67;20.95;;;17.90;99.90;;;;;;5049777;28;20547;-44
2021/06/07 00:16:22;;;;;;;33.00;23.23;;;17.90;99.90;;;;;;5050574;28;20032;-49
2021/06/07 00:18:48;;;;;;;33.53;22.30;;;17.90;99.90;;;;;;5050293;28;20055;-46
2021/06/07 00:21:17;;;;;;;32.40;22.10;;;17.90;99.90;;;;;;5050698;28;20025;-49
2021/06/07 00:23:43;;;;;;;32.55;23.13;;;17.90;99.90;;;;;;5050476;28;20087;-47
2021/06/07 00:26:10;;;;;;;30.13;21.05;;;17.80;99.90;;;;;;5050653;28;20107;-46
2021/06/07 00:28:36;;;;;;;29.35;20.65;;;17.80;99.90;;;;;;5050532;28;20104;-46
2021/06/07 00:31:03;;;;;;;29.70;20.50;;;17.80;99.90;;;;;;5050723;28;20789;-47
2021/06/07 00:33:30;;;;;;;25.58;19.05;;;17.80;99.90;;;;;;5051315;28;20424;-47
2021/06/07 00:35:56;;;;;;;24.48;18.65;;;17.70;99.90;;;;;;5050903;28;20013;-47
2021/06/07 00:38:21;;;;;;;23.42;16.50;;;17.70;99.90;;;;;;5033286;28;20025;-46
2021/06/07 00:40:47;;;;;;;21.42;16.73;;;17.70;99.90;;;;;;5052114;28;20025;-43
2021/06/07 00:43:13;;;;;;;20.77;15.13;;;17.70;99.90;;;;;;5052016;28;20029;-45
2021/06/07 00:45:40;;;;;;;18.33;13.75;;;17.70;99.90;;;;;;5050564;28;20411;-46
2021/06/07 00:48:07;;;;;;;16.65;13.88;;;17.70;99.90;;;;;;5032438;28;20100;-45
2021/06/07 00:50:36;;;;;;;15.90;12.70;;;17.70;99.90;;;;;;5049751;28;20052;-46
2021/06/07 00:53:03;;;;;;;13.38;11.75;;;17.70;99.90;;;;;;5050032;28;20044;-45
2021/06/07 00:55:42;;;;;;;14.32;11.55;;;17.70;99.90;;;;;;5050181;28;20017;-46
2021/06/07 00:58:09;;;;;;;14.35;11.88;;;17.70;99.90;;;;;;5050153;28;20079;-47
2021/06/07 01:00:36;;;;;;;16.85;12.15;;;17.70;99.90;;;;;;5049863;28;20029;-46
2021/06/07 01:03:03;;;;;;;15.75;11.60;;;17.70;99.90;;;;;;5032112;28;20033;-46
2021/06/07 01:05:29;;;;;;;16.45;12.93;;;17.70;99.90;;;;;;5049828;28;20087;-45
2021/06/07 01:07:55;;;;;;;16.52;12.65;;;17.70;99.90;;;;;;5050320;28;20458;-45
2021/06/07 01:10:23;;;;;;;16.77;12.18;;;17.70;99.90;;;;;;5066608;22;20048;-46
2021/06/07 01:12:49;;;;;;;15.25;13.48;;;17.60;99.90;;;;;;5049348;28;20103;-43
2021/06/07 01:15:15;;;;;;;16.98;12.80;;;17.70;99.90;;;;;;5049117;28;20044;-43
2021/06/07 01:17:41;;;;;;;14.85;13.02;;;17.70;99.90;;;;;;5049022;28;20017;-46
2021/06/07 01:20:10;;;;;;;19.15;12.52;;;17.70;99.90;;;;;;5048400;28;20090;-47
2021/06/07 01:22:36;;;;;;;16.65;12.38;;;17.70;99.90;;;;;;5048998;28;20021;-45
2021/06/07 01:25:05;;;;;;;19.02;12.38;;;17.70;99.90;;;;;;5049281;28;20067;-45
2021/06/07 01:27:31;;;;;;;13.48;10.68;;;17.80;99.90;;;;;;5052639;28;20028;-42
2021/06/07 01:29:57;;;;;;;15.00;11.63;;;17.70;99.90;;;;;;5033908;28;20033;-45
2021/06/07 01:32:22;;;;;;;15.80;11.48;;;17.70;99.90;;;;;;5052813;28;20413;-44
2021/06/07 01:34:48;;;;;;;14.10;11.20;;;17.70;99.90;;;;;;5052799;28;20029;-46
2021/06/07 01:37:14;;;;;;;13.25;11.63;;;17.70;99.90;;;;;;5034667;28;20553;-45
2021/06/07 01:39:39;;;;;;;15.27;12.02;;;17.70;99.90;;;;;;5051650;28;20040;-45
2021/06/07 01:42:05;;;;;;;17.92;12.10;;;17.60;99.90;;;;;;5052372;28;20066;-43
2021/06/07 01:44:31;;;;;;;13.10;11.73;;;17.50;99.90;;;;;;5034441;28;20495;-46
2021/06/07 01:46:56;;;;;;;14.95;13.15;;;17.40;99.90;;;;;;5052290;28;20028;-44
2021/06/07 01:49:22;;;;;;;15.15;12.20;;;17.40;99.90;;;;;;5051372;28;20017;-44
2021/06/07 01:51:47;;;;;;;14.35;12.02;;;17.30;99.90;;;;;;5034392;28;20124;-43
2021/06/07 01:54:13;;;;;;;18.75;12.40;;;17.30;99.90;;;;;;5052821;28;20041;-41
2021/06/07 01:56:38;;;;;;;17.08;12.68;;;17.20;99.90;;;;;;5052979;28;20024;-43
2021/06/07 01:59:04;;;;;;;20.77;13.57;;;17.10;99.90;;;;;;5051888;28;20029;-47
2021/06/07 02:01:30;;;;;;;14.95;13.02;;;17.10;99.90;;;;;;5053057;28;20039;-44
2021/06/07 02:03:56;;;;;;;18.38;13.25;;;17.20;99.90;;;;;;5050802;28;20095;-42
2021/06/07 02:06:23;;;;;;;15.48;12.50;;;17.00;99.90;;;;;;5051891;28;20095;-43
2021/06/07 02:08:51;;;;;;;17.05;13.32;;;17.00;99.90;;;;;;5032964;28;20037;-42
2021/06/07 02:11:23;;;;;;;17.77;13.68;;;17.00;99.90;;;;;;5051600;28;20558;-45
2021/06/07 02:13:50;;;;;;;19.63;14.38;;;16.90;99.90;;;;;;5051631;28;20017;-44
2021/06/07 02:16:20;;;;;;;17.10;14.25;;;16.90;99.90;;;;;;5052458;28;20203;-42
2021/06/07 02:18:46;;;;;;;19.65;15.07;;;16.70;99.90;;;;;;5055838;28;20178;-41
2021/06/07 02:21:13;;;;;;;19.17;14.98;;;16.60;99.90;;;;;;5054201;28;20040;-42
2021/06/07 02:23:39;;;;;;;22.52;15.23;;;16.60;99.90;;;;;;5053088;28;20029;-45
2021/06/07 02:26:07;;;;;;;22.70;14.75;;;16.50;99.90;;;;;;5051434;28;20043;-42
2021/06/07 02:28:33;;;;;;;20.23;14.82;;;16.50;99.90;;;;;;5050898;28;20037;-48
2021/06/07 02:30:59;;;;;;;18.65;14.80;;;16.40;99.90;;;;;;5051125;28;20037;-46
2021/06/07 02:33:26;;;;;;;17.90;15.05;;;16.30;99.90;;;;;;5051501;28;20109;-46
2021/06/07 02:35:52;;;;;;;20.42;16.60;;;16.30;99.90;;;;;;5050677;28;20021;-42
2021/06/07 02:38:18;;;;;;;19.83;16.25;;;16.30;99.90;;;;;;5049298;28;20108;-38
2021/06/07 02:40:45;;;;;;;22.00;15.48;;;16.30;99.90;;;;;;5050689;28;20036;-46
2021/06/07 02:43:11;;;;;;;18.95;15.02;;;16.30;99.90;;;;;;5051413;28;20030;-42
2021/06/07 02:45:37;;;;;;;18.52;15.02;;;16.30;99.90;;;;;;5050993;28;20037;-50
2021/06/07 02:48:04;;;;;;;18.88;16.08;;;16.30;99.90;;;;;;5051567;28;20537;-41
2021/06/07 02:50:33;;;;;;;21.38;17.05;;;16.30;99.90;;;;;;5050190;28;20090;-43
2021/06/07 02:52:59;;;;;;;22.02;17.65;;;16.30;99.90;;;;;;5051428;28;20107;-43
2021/06/07 02:55:34;;;;;;;20.80;16.10;;;16.30;99.90;;;;;;5050920;28;20080;-42
2021/06/07 02:58:00;;;;;;;21.85;16.77;;;16.20;99.90;;;;;;5051178;28;20495;-47
2021/06/07 03:00:34;;;;;;;23.85;17.05;;;16.20;99.90;;;;;;5049869;28;20059;-48
2021/06/07 03:03:01;;;;;;;21.00;16.63;;;16.20;99.90;;;;;;5051206;28;20048;-42
2021/06/07 03:05:28;;;;;;;21.55;15.82;;;16.20;99.90;;;;;;5050543;28;20293;-42
2021/06/07 03:07:54;;;;;;;21.48;16.05;;;16.30;99.90;;;;;;5050999;28;20025;-42
2021/06/07 03:10:20;;;;;;;20.10;15.43;;;16.30;99.90;;;;;;5049768;28;20033;-47
2021/06/07 03:12:45;;;;;;;21.38;16.73;;;16.30;99.90;;;;;;5050739;28;20017;-42
2021/06/07 03:15:13;;;;;;;23.13;16.17;;;16.30;99.90;;;;;;5050476;28;20021;-42
2021/06/07 03:17:39;;;;;;;24.83;16.33;;;16.20;99.90;;;;;;5050391;28;20021;-41
2021/06/07 03:20:09;;;;;;;19.27;15.13;;;16.30;99.90;;;;;;5049653;28;20029;-41
2021/06/07 03:22:35;;;;;;;23.58;15.38;;;16.30;99.90;;;;;;5050436;28;20021;-42
2021/06/07 03:25:03;;;;;;;15.68;13.55;;;16.30;99.90;;;;;;5050289;28;20036;-43
2021/06/07 03:27:29;;;;;;;14.43;11.88;;;16.30;99.90;;;;;;5050262;28;20033;-42
2021/06/07 03:29:54;;;;;;;12.10;10.88;;;16.20;99.90;;;;;;5049057;28;20031;-46
2021/06/07 03:32:20;;;;;;;10.98;9.20;;;16.20;99.90;;;;;;5050191;28;20107;-45
2021/06/07 03:34:45;;;;;;;8.82;7.72;;;16.10;99.90;;;;;;5049955;28;20098;-43
2021/06/07 03:37:11;;;;;;;8.90;7.88;;;16.10;99.90;;;;;;5049993;28;20021;-43
2021/06/07 03:39:37;;;;;;;11.27;8.85;;;16.10;99.90;;;;;;5049323;28;20195;-42
2021/06/07 03:42:03;;;;;;;10.27;7.47;;;16.10;99.90;;;;;;5032110;28;20021;-42
2021/06/07 03:44:28;;;;;;;16.75;8.48;;;16.20;99.90;;;;;;5050055;28;20537;-45
2021/06/07 03:46:54;;;;;;;10.73;8.05;;;16.10;99.90;;;;;;5049809;28;20028;-42
2021/06/07 03:49:19;;;;;;;10.77;7.82;;;16.10;99.90;;;;;;5048459;28;20057;-42
2021/06/07 03:51:45;;;;;;;13.93;9.65;;;16.20;99.90;;;;;;5049394;28;20029;-44
2021/06/07 03:54:11;;;;;;;9.65;8.65;;;16.10;99.90;;;;;;5032013;28;20036;-44
2021/06/07 03:56:36;;;;;;;10.55;8.82;;;16.10;99.90;;;;;;5049980;28;20025;-47
2021/06/07 03:59:02;;;;;;;10.00;8.95;;;16.10;99.90;;;;;;5049240;28;20029;-42
2021/06/07 04:01:28;;;;;;;13.02;9.43;;;16.10;99.90;;;;;;5050152;28;20163;-43
2021/06/07 04:03:53;;;;;;;12.10;9.30;;;16.10;99.90;;;;;;5048443;28;20111;-47
2021/06/07 04:06:20;;;;;;;10.80;9.40;;;16.10;99.90;;;;;;5049711;28;20033;-44
2021/06/07 04:08:46;;;;;;;10.90;9.48;;;16.10;99.90;;;;;;5048541;28;20029;-43
2021/06/07 04:11:11;;;;;;;12.15;9.65;;;16.00;99.90;;;;;;5049744;28;20394;-45
2021/06/07 04:13:37;;;;;;;13.18;9.35;;;16.00;99.90;;;;;;5049496;28;20052;-45
2021/06/07 04:16:06;;;;;;;14.15;10.02;;;16.00;99.90;;;;;;5049101;28;20031;-43
2021/06/07 04:18:32;;;;;;;13.57;10.00;;;16.00;99.90;;;;;;5048888;28;20017;-42
2021/06/07 04:20:58;;;;;;;12.60;9.95;;;16.00;99.90;;;;;;5049493;28;20021;-42
2021/06/07 04:23:24;;;;;;;13.32;10.13;;;16.00;99.90;;;;;;5049442;28;20040;-44
2021/06/07 04:25:50;;;;;;;14.02;11.43;;;16.00;99.90;;;;;;5048475;28;20032;-43
2021/06/07 04:28:16;;;;;;;14.82;10.85;;;16.00;99.90;;;;;;5049443;28;20031;-47
2021/06/07 04:30:42;;;;;;;12.15;10.85;;;16.00;99.90;;;;;;5048333;28;20065;-42
2021/06/07 04:33:09;;;;;;;15.18;9.93;;;15.90;99.90;;;;;;5049534;28;20029;-47
2021/06/07 04:35:34;;;;;;;16.73;10.85;;;15.90;99.90;;;;;;5049273;28;20021;-43
2021/06/07 04:38:00;;;;;;;14.90;11.30;;;15.90;99.90;;;;;;5049504;28;20506;-46
2021/06/07 04:40:31;;;;;;;15.25;11.05;;;15.90;99.90;;;;;;5048652;28;20086;-42
2021/06/07 04:42:59;;;;;;;15.00;11.48;;;15.90;99.90;;;;;;5049647;28;20032;-46
2021/06/07 04:45:25;;;;;;;14.32;11.20;;;15.90;99.90;;;;;;5049098;28;20402;-45
2021/06/07 04:47:51;;;;;;;18.33;12.48;;;15.90;99.90;;;;;;5031190;28;20021;-44
2021/06/07 04:50:18;;;;;;;16.48;11.52;;;15.90;99.90;;;;;;5049097;28;20033;-44
2021/06/07 04:53:00;;;;;;;17.45;11.75;;;15.90;99.90;;;;;;5049513;28;20021;-42
2021/06/07 04:55:41;;;;;;;17.75;12.68;;;15.90;99.90;;;;;;5049139;28;20017;-43
2021/06/07 04:58:07;;;;;;;17.75;12.70;;;15.90;99.90;;;;;;5049284;28;20733;-45
2021/06/07 05:00:34;;;;;;;17.27;12.63;;;15.80;99.90;;;;;;5050700;28;20053;-42
2021/06/07 05:02:59;;;;;;;16.27;12.52;;;15.80;99.90;;;;;;5035109;28;20652;-40
2021/06/07 05:05:25;;;;;;;19.63;12.50;;;15.80;99.90;;;;;;5052908;28;20025;-43
2021/06/07 05:07:51;;;;;;;18.95;13.73;;;15.90;99.90;;;;;;5052850;28;20432;-45
2021/06/07 05:10:17;;;;;;;16.45;12.85;;;15.90;99.90;;;;;;5051972;28;20044;-42
2021/06/07 05:12:43;;;;;;;18.73;13.65;;;15.90;99.90;;;;;;5052986;28;20013;-45
2021/06/07 05:15:10;;;;;;;18.63;13.23;;;16.00;99.90;;;;;;5052800;28;20093;-41
2021/06/07 05:17:36;;;;;;;21.52;12.75;;;16.00;99.90;;;;;;5053239;28;20024;-43
2021/06/07 05:20:09;;;;;;;20.67;14.65;;;15.90;99.90;;;;;;5052183;28;20028;-42
2021/06/07 05:22:34;;;;;;;18.08;13.00;;;16.00;99.90;;;;;;5052540;28;20043;-42
2021/06/07 05:25:00;;;;;;;19.20;13.75;;;15.90;99.90;;;;;;5052640;28;20407;-42
2021/06/07 05:27:26;;;;;;;19.48;14.10;;;15.90;99.90;;;;;;5052229;28;20029;-44
2021/06/07 05:29:52;;;;;;;20.25;13.98;;;15.90;99.90;;;;;;5049981;28;20053;-48
2021/06/07 05:32:17;;;;;;;17.92;13.20;;;15.90;99.90;;;;;;5052253;28;20104;-45
2021/06/07 05:34:43;;;;;;;19.60;14.38;;;15.90;99.90;;;;;;5052453;28;20045;-41
2021/06/07 05:37:09;;;;;;;17.40;13.35;;;16.00;99.90;;;;;;5035156;28;20108;-41
2021/06/07 05:39:34;;;;;;;16.27;13.15;;;15.90;99.90;;;;;;5052710;28;20438;-42
2021/06/07 05:42:01;;;;;;;18.85;14.05;;;15.90;99.90;;;;;;5053384;28;20105;-44
2021/06/07 05:44:26;;;;;;;17.13;13.65;;;16.00;99.90;;;;;;5053529;28;20033;-48
2021/06/07 05:46:53;;;;;;;19.80;15.13;;;15.90;99.90;;;;;;5052905;28;20377;-45
2021/06/07 05:49:19;;;;;;;23.27;15.60;;;15.90;99.90;;;;;;5052810;28;20036;-45
2021/06/07 05:51:45;;;;;;;21.17;15.25;;;15.90;99.90;;;;;;5052345;28;20434;-42
2021/06/07 05:54:11;;;;;;;19.30;14.25;;;15.90;99.90;;;;;;5053114;28;20024;-42
2021/06/07 05:56:37;;;;;;;21.77;15.77;;;15.90;99.90;;;;;;5053352;28;20064;-45
2021/06/07 05:59:07;;;;;;;23.17;16.33;;;15.90;99.90;;;;;;5053057;28;20437;-42
2021/06/07 06:01:34;;;;;;;20.02;14.80;;;15.90;99.90;;;;;;5036305;28;20024;-47
2021/06/07 06:04:00;;;;;;;18.73;14.15;;;15.80;99.90;;;;;;5054363;28;20028;-41
2021/06/07 06:06:25;;;;;;;21.50;14.88;;;15.70;99.90;;;;;;5054515;28;20036;-42
2021/06/07 06:08:52;;;;;;;21.45;16.52;;;15.80;99.90;;;;;;5053535;28;20033;-43
2021/06/07 06:11:19;;;;;;;22.45;16.73;;;15.80;99.90;;;;;;5053036;28;20136;-43
2021/06/07 06:13:46;;;;;;;23.00;15.68;;;15.80;99.90;;;;;;5052403;28;20040;-48
2021/06/07 06:16:12;;;;;;;21.50;16.02;;;15.80;99.90;;;;;;5052740;28;20502;-43
2021/06/07 06:18:38;;;;;;;22.60;15.57;;;15.70;99.90;;;;;;5033898;28;20029;-42
2021/06/07 06:21:05;;;;;;;24.65;16.52;;;15.70;99.90;;;;;;5052609;28;20029;-40
2021/06/07 06:23:30;;;;;;;23.48;15.60;;;15.70;99.90;;;;;;5052599;28;20652;-42
2021/06/07 06:25:56;;;;;;;22.73;16.30;;;15.70;99.90;;;;;;5052494;28;20056;-43
2021/06/07 06:28:21;;;;;;;22.30;15.90;;;15.70;99.90;;;;;;5052115;28;20037;-39
2021/06/07 06:30:47;;;;;;;25.33;18.13;;;15.70;99.90;;;;;;5051747;28;20083;-48
2021/06/07 06:33:12;;;;;;;21.02;16.38;;;15.70;99.90;;;;;;5053586;28;20029;-42
2021/06/07 06:35:38;;;;;;;24.08;17.23;;;15.70;99.90;;;;;;5054100;28;20074;-42
2021/06/07 06:38:04;;;;;;;25.13;16.45;;;15.70;99.90;;;;;;5053308;28;20024;-42
2021/06/07 06:40:32;;;;;;;23.33;16.02;;;15.70;99.90;;;;;;5052339;28;20194;-43
2021/06/07 06:42:59;;;;;;;20.88;15.80;;;15.70;99.90;;;;;;5052196;28;20125;-41
2021/06/07 06:45:25;;;;;;;20.48;15.85;;;15.70;99.90;;;;;;5051422;28;20111;-43
2021/06/07 06:47:55;;;;;;;22.65;15.57;;;15.70;99.90;;;;;;5051044;28;20044;-56
2021/06/07 06:50:23;;;;;;;25.50;17.42;;;15.70;99.90;;;;;;5041972;28;20037;-49
2021/06/07 06:52:48;;;;;;;22.02;15.80;;;15.70;99.90;;;;;;5049077;28;20024;-43
2021/06/07 06:55:14;;;;;;;21.52;15.63;;;15.70;99.90;;;;;;5049490;28;20040;-47
2021/06/07 06:57:40;;;;;;;25.75;17.35;;;15.70;99.90;;;;;;5050087;28;20044;-48
2021/06/07 07:00:09;;;;;;;27.20;17.38;;;15.80;99.90;;;;;;5049221;28;20025;-59
2021/06/07 07:02:35;;;;;;;21.45;16.05;;;15.80;99.90;;;;;;5050710;28;20021;-54
2021/06/07 07:05:02;;;;;;;22.92;16.38;;;15.80;99.90;;;;;;5050346;28;20392;-48
2021/06/07 07:07:27;;;;;;;22.77;15.93;;;15.80;99.90;;;;;;5051052;28;20403;-49
2021/06/07 07:09:53;;;;;;;23.48;15.80;;;15.80;99.90;;;;;;5069328;22;20049;-53
2021/06/07 07:12:23;;;;;;;20.58;16.48;;;15.80;99.90;;;;;;5068974;28;20486;-48
2021/06/07 07:14:50;;;;;;;29.02;17.70;;;15.80;99.90;;;;;;5070057;28;20020;-51
2021/06/07 07:17:16;;;;;;;21.58;15.95;;;15.80;99.90;;;;;;5069518;28;20020;-48
2021/06/07 07:19:42;;;;;;;23.20;16.75;;;15.70;99.90;;;;;;5068953;28;20020;-49
2021/06/07 07:22:08;;;;;;;23.70;16.55;;;15.70;99.90;;;;;;5069301;28;20472;-46
2021/06/07 07:24:34;;;;;;;21.85;16.75;;;15.80;99.90;;;;;;5070025;28;20051;-51
2021/06/07 07:27:00;;;;;;;24.85;16.92;;;15.80;99.90;;;;;;5069671;28;20021;-49
2021/06/07 07:29:26;;;;;;;28.67;17.77;;;15.70;99.90;;;;;;5067016;28;20076;-48
2021/06/07 07:31:52;;;;;;;24.38;17.33;;;15.70;99.90;;;;;;5069045;28;20024;-50
2021/06/07 07:34:18;;;;;;;27.33;17.40;;;15.80;99.90;;;;;;5068689;28;20052;-50
2021/06/07 07:36:43;;;;;;;20.70;15.10;;;15.80;99.90;;;;;;5051110;28;20020;-48
2021/06/07 07:39:09;;;;;;;24.27;16.23;;;15.70;99.90;;;;;;5068662;28;20455;-50
2021/06/07 07:41:35;;;;;;;23.83;17.05;;;15.70;99.90;;;;;;5068416;28;20082;-49
2021/06/07 07:44:01;;;;;;;25.58;15.93;;;15.70;99.90;;;;;;5068759;28;20136;-53
2021/06/07 07:46:27;;;;;;;24.90;17.08;;;15.70;99.90;;;;;;5069642;28;20033;-52
2021/06/07 07:48:52;;;;;;;28.30;16.83;;;15.70;99.90;;;;;;5050332;28;20021;-52
2021/06/07 07:51:18;;;;;;;21.38;16.30;;;15.80;99.90;;;;;;5068444;28;20410;-53
2021/06/07 07:53:43;;;;;;;23.90;17.95;;;15.90;99.90;;;;;;5068540;28;20230;-52
2021/06/07 07:56:09;;;;;;;24.45;15.35;;;15.90;99.90;;;;;;5069338;28;20060;-51
2021/06/07 07:58:35;;;;;;;24.13;17.55;;;15.90;99.90;;;;;;5068681;28;20035;-52
2021/06/07 08:01:01;;;;;;;20.70;15.57;;;16.00;99.90;;;;;;5068970;28;20032;-52
2021/06/07 08:03:26;;;;;;;21.48;16.00;;;15.90;99.90;;;;;;5069013;28;20053;-52
2021/06/07 08:05:52;;;;;;;20.80;16.27;;;15.90;99.90;;;;;;5068468;28;20024;-50
2021/06/07 08:08:18;;;;;;;20.40;14.77;;;16.00;99.90;;;;;;5068801;28;20542;-50
2021/06/07 08:10:44;;;;;;;19.90;15.27;;;15.80;99.90;;;;;;5067792;28;20031;-50
2021/06/07 08:13:10;;;;;;;22.80;15.43;;;16.00;99.90;;;;;;5067896;28;20028;-51
2021/06/07 08:15:35;;;;;;;19.38;14.57;;;15.90;99.90;;;;;;5068582;28;20052;-53
2021/06/07 08:18:02;;;;;;;18.85;15.23;;;15.90;99.90;;;;;;5068891;28;20020;-46
2021/06/07 08:20:27;;;;;;;21.05;15.82;;;15.90;99.90;;;;;;5068099;28;20028;-51
2021/06/07 08:22:55;;;;;;;24.77;15.90;;;15.90;99.90;;;;;;5068336;28;20405;-49
2021/06/07 08:25:22;;;;;;;22.15;16.73;;;15.90;99.90;;;;;;5068747;28;20386;-51
2021/06/07 08:27:48;;;;;;;17.02;13.43;;;16.00;99.90;;;;;;5068271;28;20352;-51
2021/06/07 08:30:14;;;;;;;19.98;15.68;;;16.00;99.90;;;;;;5066786;28;20506;-50
2021/06/07 08:32:40;;;;;;;21.88;14.98;;;16.00;99.90;;;;;;5068326;28;20035;-49
2021/06/07 08:35:08;;;;;;;22.63;15.65;;;16.00;99.90;;;;;;5069835;28;20115;-51
2021/06/07 08:37:34;;;;;;;18.20;14.70;;;16.00;99.90;;;;;;5054579;28;20502;-50
2021/06/07 08:40:00;;;;;;;20.00;14.25;;;16.00;99.90;;;;;;5072126;28;20047;-50
2021/06/07 08:42:27;;;;;;;21.25;15.95;;;16.00;99.90;;;;;;5072058;28;20561;-52
2021/06/07 08:44:53;;;;;;;20.73;15.73;;;16.10;99.90;;;;;;5072466;28;20456;-52
2021/06/07 08:47:19;;;;;;;23.10;16.20;;;16.10;99.90;;;;;;5072939;28;20033;-52
2021/06/07 08:49:46;;;;;;;19.73;14.40;;;16.10;99.90;;;;;;5070978;28;20035;-52
2021/06/07 08:52:13;;;;;;;20.55;15.85;;;16.10;99.90;;;;;;5071811;28;20115;-53
2021/06/07 08:54:38;;;;;;;18.70;14.60;;;16.00;99.90;;;;;;5071942;28;20027;-54
2021/06/07 08:57:04;;;;;;;20.58;14.63;;;16.00;99.90;;;;;;5054177;28;20115;-55
2021/06/07 08:59:30;;;;;;;25.88;13.98;;;16.10;99.90;;;;;;5071050;28;20036;-52
2021/06/07 09:02:01;;;;;;;18.85;14.82;;;16.10;99.90;;;;;;5072091;28;20472;-51
2021/06/07 09:04:26;;;;;;;19.27;15.05;;;16.10;99.90;;;;;;5070668;28;20111;-53
2021/06/07 09:06:53;;;;;;;20.55;14.60;;;16.10;99.90;;;;;;5072042;28;20101;-58
2021/06/07 09:09:22;;;;;;;21.42;14.77;;;16.10;99.90;;;;;;5069406;28;20029;-65
2021/06/07 09:12:01;;;;;;;19.88;14.77;;;16.10;99.90;;;;;;5071254;28;20618;-58
2021/06/07 09:14:29;;;;;;;19.60;15.63;;;16.20;99.90;;;;;;5072120;28;20025;-62
2021/06/07 09:16:55;;;;;;;19.20;15.57;;;16.20;99.90;;;;;;5071230;28;20025;-61
2021/06/07 09:19:26;;;;;;;17.85;14.23;;;16.30;99.90;;;;;;5070867;28;20085;-62
2021/06/07 09:22:14;;;;;;;21.40;15.95;;;16.30;99.90;;;;;;5051131;28;20028;-52
2021/06/07 09:25:07;;;;;;;22.42;16.23;;;16.30;99.90;;;;;;5072102;28;20032;-57
2021/06/07 09:27:33;;;;;;;21.05;15.15;;;16.40;99.90;;;;;;5072027;28;20111;-52
2021/06/07 09:29:58;;;;;;;21.30;15.13;;;16.30;99.90;;;;;;5071148;28;20032;-47
2021/06/07 09:32:24;;;;;;;22.98;15.52;;;16.40;99.90;;;;;;5072184;28;20090;-46
2021/06/07 09:35:08;;;;;;;19.88;15.73;;;16.50;99.90;;;;;;5072356;28;20146;-46
2021/06/07 09:37:34;;;;;;;18.90;14.85;;;16.50;99.90;;;;;;5072409;28;20028;-45
2021/06/07 09:40:26;;;;;;;19.17;15.18;;;16.50;99.90;;;;;;5071061;28;20409;-45
2021/06/07 09:42:59;;;;;;;17.25;14.30;;;16.60;99.90;;;;;;5067492;28;20033;-47
2021/06/07 09:45:54;;;;;;;18.55;14.75;;;16.60;99.90;;;;;;5071540;28;20491;-49
2021/06/07 09:48:20;;;;;;;19.75;14.95;;;16.60;99.90;;;;;;5072019;28;20136;-51
2021/06/07 09:51:17;;;;;;;21.77;17.15;;;16.70;99.90;;;;;;5071421;28;20501;-53
2021/06/07 09:53:49;;;;;;;24.48;15.95;;;16.80;99.90;;;;;;5053356;28;20124;-49
2021/06/07 09:56:18;;;;;;;21.45;15.73;;;16.80;99.90;;;;;;5071648;28;20025;-51
2021/06/07 09:58:46;;;;;;;27.73;17.75;;;16.90;99.90;;;;;;5070546;28;20032;-49
2021/06/07 10:01:17;;;;;;;22.02;16.15;;;16.80;99.90;;;;;;5053996;28;20564;-60
2021/06/07 10:03:49;;;;;;;19.67;15.82;;;16.80;99.90;;;;;;5068457;28;20028;-51
2021/06/07 10:06:23;;;;;;;19.92;16.00;;;16.90;99.90;;;;;;5072279;28;20025;-52
2021/06/07 10:08:58;;;;;;;23.30;16.93;;;17.00;99.90;;;;;;5052989;28;20037;-56
2021/06/07 10:11:40;;;;;;;19.70;15.60;;;17.00;99.90;;;;;;5071999;28;20392;-51
2021/06/07 10:14:14;;;;;;;17.65;14.98;;;16.90;99.90;;;;;;5072037;28;20027;-55
2021/06/07 10:16:57;;;;;;;22.20;15.73;;;16.90;99.90;;;;;;5071292;28;20020;-50
2021/06/07 10:19:47;;;;;;;19.23;15.57;;;17.00;99.90;;;;;;5071214;28;20034;-59
2021/06/07 10:22:14;;;;;;;21.15;15.82;;;17.10;99.90;;;;;;5071795;28;20028;-53
2021/06/07 10:24:40;;;;;;;22.67;16.33;;;17.20;99.90;;;;;;5072045;28;20085;-53
2021/06/07 10:27:07;;;;;;;22.83;16.55;;;17.30;99.90;;;;;;5072392;28;20020;-50
2021/06/07 10:29:35;;;;;;;26.50;16.90;;;17.30;99.90;;;;;;5071919;28;20029;-54
2021/06/07 10:32:13;;;;;;;22.35;17.30;;;17.50;99.90;;;;;;5071129;28;20028;-54
2021/06/07 10:34:46;;;;;;;20.35;15.50;;;17.50;99.90;;;;;;5072018;28;20482;-53
2021/06/07 10:37:12;;;;;;;17.73;15.27;;;17.50;99.90;;;;;;5071586;28;20054;-53
2021/06/07 10:39:37;;;;;;;20.05;16.73;;;17.60;99.90;;;;;;5071719;28;20025;-53
2021/06/07 10:42:09;;;;;;;21.27;16.15;;;17.70;99.90;;;;;;5071925;28;20107;-53
2021/06/07 10:44:50;;;;;;;18.77;14.63;;;17.70;99.90;;;;;;5071995;28;20536;-55
2021/06/07 10:47:44;;;;;;;19.27;15.43;;;17.80;99.90;;;;;;5071814;28;20449;-54
2021/06/07 10:50:12;;;;;;;18.33;15.02;;;17.70;99.90;;;;;;5059637;28;20090;-54
2021/06/07 10:52:58;;;;;;;21.10;15.02;;;17.80;99.90;;;;;;5071345;28;20031;-52
2021/06/07 10:55:29;;;;;;;17.17;14.70;;;17.90;99.90;;;;;;5071892;28;20446;-53
2021/06/07 10:58:01;;;;;;;19.02;15.32;;;18.10;99.90;;;;;;5071283;28;20063;-56
2021/06/07 11:00:47;;;;;;;17.13;13.95;;;18.30;99.90;;;;;;5052880;28;20021;-56
2021/06/07 11:03:24;;;;;;;19.13;14.35;;;18.40;99.90;;;;;;5071462;28;20054;-53
2021/06/07 11:05:53;;;;;;;16.23;13.68;;;18.30;99.90;;;;;;5071467;28;20094;-53
2021/06/07 11:08:22;;;;;;;17.35;14.52;;;18.40;99.90;;;;;;5071400;28;20112;-53
2021/06/07 11:11:00;;;;;;;17.75;13.70;;;18.50;99.90;;;;;;5071120;28;20086;-53
2021/06/07 11:13:30;;;;;;;17.63;13.95;;;18.50;99.90;;;;;;5071056;28;20021;-49
2021/06/07 11:15:59;;;;;;;17.30;13.38;;;18.70;99.90;;;;;;5070652;28;20307;-56
2021/06/07 11:18:27;;;;;;;17.25;13.95;;;18.90;99.90;;;;;;5070457;28;20029;-53
2021/06/07 11:21:07;;;;;;;15.57;13.38;;;18.70;99.90;;;;;;5070962;28;20495;-53
2021/06/07 11:23:41;;;;;;;17.92;14.63;;;18.60;99.90;;;;;;5070512;28;20032;-55
2021/06/07 11:26:12;;;;;;;16.95;13.88;;;18.60;99.90;;;;;;5070895;28;20024;-52
2021/06/07 11:28:45;;;;;;;17.05;14.55;;;18.70;99.90;;;;;;5071100;28;20028;-52
2021/06/07 11:31:19;;;;;;;16.55;14.25;;;18.70;99.90;;;;;;5070379;28;20390;-54
2021/06/07 11:33:58;;;;;;;21.63;14.02;;;18.80;99.90;;;;;;5052348;28;20028;-54
2021/06/07 11:36:46;;;;;;;15.85;13.52;;;18.80;99.90;;;;;;5069862;28;20035;-52
2021/06/07 11:39:41;;;;;;;18.52;13.63;;;18.80;99.90;;;;;;5052005;28;20506;-54
2021/06/07 11:42:07;;;;;;;21.42;14.50;;;18.90;99.90;;;;;;5058880;28;20040;-53
2021/06/07 11:44:51;;;;;;;17.60;15.10;;;18.80;99.90;;;;;;5070285;28;20013;-54
2021/06/07 11:47:22;;;;;;;17.75;14.35;;;18.90;99.90;;;;;;5070275;28;20510;-55
2021/06/07 11:49:56;;;;;;;16.58;13.38;;;18.90;99.90;;;;;;5070034;28;20036;-56
2021/06/07 11:52:36;;;;;;;16.43;13.47;;;18.90;99.90;;;;;;5070049;28;20024;-54
2021/06/07 11:55:15;;;;;;;19.30;13.57;;;19.00;99.90;;;;;;5070203;28;20078;-54
2021/06/07 11:57:41;;;;;;;17.15;12.90;;;18.90;99.90;;;;;;5070153;28;20503;-54
2021/06/07 12:00:07;;;;;;;19.92;14.85;;;18.80;99.90;;;;;;5052010;28;20020;-54
2021/06/07 12:02:33;;;;;;;22.08;15.05;;;18.90;99.90;;;;;;5070323;28;20033;-53
2021/06/07 12:05:07;;;;;;;16.60;13.70;;;19.00;99.90;;;;;;5070208;28;20555;-54
2021/06/07 12:07:37;;;;;;;17.13;14.18;;;19.10;99.90;;;;;;5070026;28;20025;-54
2021/06/07 12:10:05;;;;;;;20.25;14.07;;;19.10;99.90;;;;;;5068836;28;20027;-55
2021/06/07 12:12:32;;;;;;;18.50;14.00;;;19.10;99.90;;;;;;5070085;28;20016;-52
2021/06/07 12:15:17;;;;;;;19.75;14.23;;;19.20;99.90;;;;;;5069925;28;20013;-56
2021/06/07 12:17:48;;;;;;;16.83;13.80;;;19.20;99.90;;;;;;5069951;28;20020;-52
2021/06/07 12:20:16;;;;;;;17.58;14.57;;;19.30;99.90;;;;;;5069650;28;20032;-53
2021/06/07 12:22:45;;;;;;;16.83;13.50;;;19.30;99.90;;;;;;5051681;28;20104;-50
2021/06/07 12:30:29;;;;;;;14.23;12.73;;;19.40;99.90;;;;;;5069240;28;20078;-52
2021/06/07 12:32:56;;;;;;;18.08;12.65;;;19.40;99.90;;;;;;5051559;28;20491;-50
2021/06/07 12:35:22;;;;;;;17.58;13.93;;;19.40;99.90;;;;;;5069754;28;20025;-52
2021/06/07 12:37:55;;;;;;;14.38;12.80;;;19.40;99.90;;;;;;5051713;28;20115;-53
2021/06/07 12:40:28;;;;;;;15.73;12.60;;;19.40;99.90;;;;;;5051421;28;20025;-54